sensor_id;sensor_type;location;lat;lon;timestamp;pressure;altitude;pressure_sealevel;temperature;humidity
43119;BME280;28729;49.838;8.650;2023-02-21T00:01:17;100268.81;;;8.49;94.84
43119;BME280;28729;49.838;8.650;2023-02-21T00:05:37;100268.44;;;8.46;95.09
43119;BME280;28729;49.838;8.650;2023-02-21T00:09:57;100264.66;;;8.40;95.32
43119;BME280;28729;49.838;8.650;2023-02-21T00:14:17;100261.72;;;8.35;95.53
43119;BME280;28729;49.838;8.650;2023-02-21T00:18:38;100252.25;;;8.31;95.83
43119;BME280;28729;49.838;8.650;2023-02-21T00:22:58;100248.25;;;8.27;96.69
43119;BME280;28729;49.838;8.650;2023-02-21T00:27:19;100258.19;;;8.28;96.36
43119;BME280;28729;49.838;8.650;2023-02-21T00:31:39;100248.69;;;8.23;96.20
43119;BME280;28729;49.838;8.650;2023-02-21T00:36:00;100242.44;;;8.16;96.49
43119;BME280;28729;49.838;8.650;2023-02-21T00:40:20;100250.50;;;8.11;96.97
43119;BME280;28729;49.838;8.650;2023-02-21T00:44:41;100251.84;;;8.02;97.31
43119;BME280;28729;49.838;8.650;2023-02-21T00:49:01;100249.97;;;7.96;97.86
43119;BME280;28729;49.838;8.650;2023-02-21T00:53:23;100246.00;;;7.92;98.09
43119;BME280;28729;49.838;8.650;2023-02-21T00:57:44;100249.41;;;7.87;98.34
43119;BME280;28729;49.838;8.650;2023-02-21T01:02:05;100240.78;;;7.84;98.74
43119;BME280;28729;49.838;8.650;2023-02-21T01:06:25;100236.38;;;7.83;98.60
43119;BME280;28729;49.838;8.650;2023-02-21T01:10:46;100241.03;;;7.75;99.03
43119;BME280;28729;49.838;8.650;2023-02-21T01:15:06;100247.41;;;7.69;99.59
43119;BME280;28729;49.838;8.650;2023-02-21T01:19:27;100244.03;;;7.67;99.98
43119;BME280;28729;49.838;8.650;2023-02-21T01:23:47;100254.16;;;7.67;100.00
43119;BME280;28729;49.838;8.650;2023-02-21T01:28:10;100249.97;;;7.64;100.00
43119;BME280;28729;49.838;8.650;2023-02-21T01:32:33;100252.69;;;7.64;100.00
43119;BME280;28729;49.838;8.650;2023-02-21T01:36:53;100243.19;;;7.67;100.00
43119;BME280;28729;49.838;8.650;2023-02-21T01:41:13;100247.81;;;7.73;100.00
43119;BME280;28729;49.838;8.650;2023-02-21T01:45:46;100238.53;;;7.74;100.00
43119;BME280;28729;49.838;8.650;2023-02-21T01:50:12;100239.19;;;7.69;100.00
43119;BME280;28729;49.838;8.650;2023-02-21T01:54:38;100242.38;;;7.66;100.00
43119;BME280;28729;49.838;8.650;2023-02-21T01:59:01;100231.84;;;7.63;100.00
43119;BME280;28729;49.838;8.650;2023-02-21T02:03:22;100236.53;;;7.56;100.00
43119;BME280;28729;49.838;8.650;2023-02-21T02:07:42;100223.06;;;7.48;100.00
43119;BME280;28729;49.838;8.650;2023-02-21T02:17:21;100218.28;;;7.37;100.00
43119;BME280;28729;49.838;8.650;2023-02-21T02:22:02;100213.47;;;7.32;100.00
43119;BME280;28729;49.838;8.650;2023-02-21T02:43:33;100213.75;;;7.17;100.00
43119;BME280;28729;49.838;8.650;2023-02-21T02:47:40;100199.59;;;7.14;100.00
43119;BME280;28729;49.838;8.650;2023-02-21T02:51:44;100205.53;;;7.11;100.00
43119;BME280;28729;49.838;8.650;2023-02-21T02:56:00;100206.84;;;7.08;100.00
43119;BME280;28729;49.838;8.650;2023-02-21T03:00:05;100202.81;;;7.04;100.00
43119;BME280;28729;49.838;8.650;2023-02-21T03:04:47;100203.50;;;6.99;100.00
43119;BME280;28729;49.838;8.650;2023-02-21T03:09:13;100203.28;;;6.94;100.00
43119;BME280;28729;49.838;8.650;2023-02-21T03:17:56;100211.09;;;6.91;100.00
43119;BME280;28729;49.838;8.650;2023-02-21T03:22:06;100221.66;;;6.87;100.00
43119;BME280;28729;49.838;8.650;2023-02-21T03:26:11;100213.66;;;6.85;100.00
43119;BME280;28729;49.838;8.650;2023-02-21T03:30:19;100211.78;;;6.79;100.00
43119;BME280;28729;49.838;8.650;2023-02-21T03:34:24;100218.50;;;6.77;100.00
43119;BME280;28729;49.838;8.650;2023-02-21T03:38:29;100209.91;;;6.73;100.00
43119;BME280;28729;49.838;8.650;2023-02-21T03:42:31;100218.75;;;6.69;100.00
43119;BME280;28729;49.838;8.650;2023-02-21T03:46:33;100216.22;;;6.67;100.00
43119;BME280;28729;49.838;8.650;2023-02-21T03:50:35;100210.94;;;6.66;100.00
43119;BME280;28729;49.838;8.650;2023-02-21T03:54:38;100204.88;;;6.64;100.00
43119;BME280;28729;49.838;8.650;2023-02-21T03:58:41;100203.16;;;6.62;100.00
43119;BME280;28729;49.838;8.650;2023-02-21T04:02:43;100201.69;;;6.60;100.00
43119;BME280;28729;49.838;8.650;2023-02-21T04:06:56;100206.56;;;6.58;100.00
43119;BME280;28729;49.838;8.650;2023-02-21T04:10:59;100205.72;;;6.57;100.00
43119;BME280;28729;49.838;8.650;2023-02-21T04:15:05;100210.34;;;6.57;100.00
43119;BME280;28729;49.838;8.650;2023-02-21T04:19:08;100212.03;;;6.58;100.00
43119;BME280;28729;49.838;8.650;2023-02-21T04:23:10;100220.69;;;6.55;100.00
43119;BME280;28729;49.838;8.650;2023-02-21T04:27:13;100215.63;;;6.52;100.00
43119;BME280;28729;49.838;8.650;2023-02-21T04:31:20;100201.50;;;6.48;100.00
43119;BME280;28729;49.838;8.650;2023-02-21T04:35:23;100204.47;;;6.47;100.00
43119;BME280;28729;49.838;8.650;2023-02-21T04:39:26;100206.56;;;6.45;100.00
43119;BME280;28729;49.838;8.650;2023-02-21T04:43:29;100210.56;;;6.42;100.00
43119;BME280;28729;49.838;8.650;2023-02-21T04:47:30;100201.13;;;6.38;100.00
43119;BME280;28729;49.838;8.650;2023-02-21T04:51:32;100206.78;;;6.36;100.00
43119;BME280;28729;49.838;8.650;2023-02-21T04:55:34;100208.69;;;6.36;100.00
43119;BME280;28729;49.838;8.650;2023-02-21T04:59:35;100198.59;;;6.36;100.00
43119;BME280;28729;49.838;8.650;2023-02-21T05:03:37;100190.59;;;6.35;100.00
43119;BME280;28729;49.838;8.650;2023-02-21T05:07:42;100192.28;;;6.36;100.00
43119;BME280;28729;49.838;8.650;2023-02-21T05:11:44;100182.16;;;6.36;100.00
43119;BME280;28729;49.838;8.650;2023-02-21T05:15:45;100191.22;;;6.37;100.00
43119;BME280;28729;49.838;8.650;2023-02-21T05:19:47;100189.53;;;6.36;100.00
43119;BME280;28729;49.838;8.650;2023-02-21T05:23:49;100188.50;;;6.37;100.00
43119;BME280;28729;49.838;8.650;2023-02-21T05:27:56;100189.53;;;6.36;100.00
43119;BME280;28729;49.838;8.650;2023-02-21T05:31:58;100182.16;;;6.36;100.00
43119;BME280;28729;49.838;8.650;2023-02-21T05:36:00;100183.44;;;6.34;100.00
43119;BME280;28729;49.838;8.650;2023-02-21T05:40:03;100168.06;;;6.33;100.00
43119;BME280;28729;49.838;8.650;2023-02-21T05:44:06;100181.97;;;6.31;100.00
43119;BME280;28729;49.838;8.650;2023-02-21T05:48:08;100179.66;;;6.28;100.00
43119;BME280;28729;49.838;8.650;2023-02-21T05:52:11;100178.84;;;6.28;100.00
43119;BME280;28729;49.838;8.650;2023-02-21T05:56:13;100183.44;;;6.27;100.00
43119;BME280;28729;49.838;8.650;2023-02-21T06:00:22;100189.78;;;6.28;100.00
43119;BME280;28729;49.838;8.650;2023-02-21T06:04:25;100184.50;;;6.26;100.00
43119;BME280;28729;49.838;8.650;2023-02-21T06:08:27;100189.13;;;6.26;100.00
43119;BME280;28729;49.838;8.650;2023-02-21T06:12:29;100193.13;;;6.23;100.00
43119;BME280;28729;49.838;8.650;2023-02-21T06:16:35;100190.63;;;6.22;100.00
43119;BME280;28729;49.838;8.650;2023-02-21T06:20:37;100187.25;;;6.20;100.00
43119;BME280;28729;49.838;8.650;2023-02-21T06:24:39;100190.41;;;6.16;100.00
43119;BME280;28729;49.838;8.650;2023-02-21T06:28:41;100199.66;;;6.15;100.00
43119;BME280;28729;49.838;8.650;2023-02-21T06:32:42;100195.06;;;6.16;100.00
43119;BME280;28729;49.838;8.650;2023-02-21T06:36:44;100194.00;;;6.17;100.00
43119;BME280;28729;49.838;8.650;2023-02-21T06:40:46;100195.47;;;6.20;100.00
43119;BME280;28729;49.838;8.650;2023-02-21T06:44:48;100196.72;;;6.24;100.00
43119;BME280;28729;49.838;8.650;2023-02-21T06:48:50;100200.72;;;6.28;100.00
43119;BME280;28729;49.838;8.650;2023-02-21T06:52:52;100204.47;;;6.33;100.00
43119;BME280;28729;49.838;8.650;2023-02-21T06:56:53;100207.84;;;6.42;100.00
43119;BME280;28729;49.838;8.650;2023-02-21T07:00:56;100206.56;;;6.45;100.00
43119;BME280;28729;49.838;8.650;2023-02-21T07:05:00;100208.88;;;6.48;100.00
43119;BME280;28729;49.838;8.650;2023-02-21T07:09:01;100218.38;;;6.52;100.00
43119;BME280;28729;49.838;8.650;2023-02-21T07:13:03;100212.03;;;6.58;100.00
43119;BME280;28729;49.838;8.650;2023-02-21T07:17:05;100197.28;;;6.59;100.00
43119;BME280;28729;49.838;8.650;2023-02-21T07:21:07;100205.72;;;6.64;100.00
43119;BME280;28729;49.838;8.650;2023-02-21T07:25:14;100201.88;;;6.72;100.00
43119;BME280;28729;49.838;8.650;2023-02-21T07:29:16;100197.66;;;6.76;100.00
43119;BME280;28729;49.838;8.650;2023-02-21T07:33:20;100202.50;;;6.87;100.00
43119;BME280;28729;49.838;8.650;2023-02-21T07:37:24;100193.41;;;6.93;100.00
43119;BME280;28729;49.838;8.650;2023-02-21T07:41:29;100200.91;;;7.04;100.00
43119;BME280;28729;49.838;8.650;2023-02-21T07:45:31;100195.41;;;7.18;100.00
43119;BME280;28729;49.838;8.650;2023-02-21T07:49:37;100203.53;;;7.31;100.00
43119;BME280;28729;49.838;8.650;2023-02-21T07:53:41;100208.72;;;7.46;100.00
43119;BME280;28729;49.838;8.650;2023-02-21T07:57:44;100210.13;;;7.62;100.00
43119;BME280;28729;49.838;8.650;2023-02-21T08:01:47;100216.53;;;7.81;100.00
43119;BME280;28729;49.838;8.650;2023-02-21T08:05:49;100205.63;;;7.99;100.00
43119;BME280;28729;49.838;8.650;2023-02-21T08:09:51;100214.16;;;8.16;100.00
43119;BME280;28729;49.838;8.650;2023-02-21T08:13:52;100215.56;;;8.25;100.00
43119;BME280;28729;49.838;8.650;2023-02-21T08:17:54;100216.91;;;8.41;100.00
43119;BME280;28729;49.838;8.650;2023-02-21T08:21:57;100209.94;;;8.63;100.00
43119;BME280;28729;49.838;8.650;2023-02-21T08:26:03;100210.09;;;8.87;100.00
43119;BME280;28729;49.838;8.650;2023-02-21T08:30:11;100211.91;;;9.11;100.00
43119;BME280;28729;49.838;8.650;2023-02-21T08:34:13;100212.97;;;9.29;100.00
43119;BME280;28729;49.838;8.650;2023-02-21T08:38:17;100203.75;;;9.53;100.00
43119;BME280;28729;49.838;8.650;2023-02-21T08:42:19;100194.94;;;9.75;100.00
43119;BME280;28729;49.838;8.650;2023-02-21T08:46:20;100193.69;;;9.89;99.84
43119;BME280;28729;49.838;8.650;2023-02-21T08:50:24;100190.13;;;10.00;97.48
43119;BME280;28729;49.838;8.650;2023-02-21T08:54:26;100194.34;;;10.15;96.86
43119;BME280;28729;49.838;8.650;2023-02-21T08:58:27;100189.34;;;10.35;96.81
43119;BME280;28729;49.838;8.650;2023-02-21T09:02:29;100186.59;;;10.47;94.28
43119;BME280;28729;49.838;8.650;2023-02-21T09:06:32;100191.59;;;10.62;93.65
43119;BME280;28729;49.838;8.650;2023-02-21T09:10:34;100184.16;;;10.86;92.90
43119;BME280;28729;49.838;8.650;2023-02-21T09:14:39;100182.06;;;11.05;91.62
43119;BME280;28729;49.838;8.650;2023-02-21T09:18:41;100187.28;;;11.18;90.25
43119;BME280;28729;49.838;8.650;2023-02-21T09:22:43;100189.66;;;11.26;89.03
43119;BME280;28729;49.838;8.650;2023-02-21T09:26:45;100180.84;;;11.41;89.10
43119;BME280;28729;49.838;8.650;2023-02-21T09:30:49;100185.81;;;11.56;87.28
43119;BME280;28729;49.838;8.650;2023-02-21T09:34:52;100181.25;;;11.61;86.29
43119;BME280;28729;49.838;8.650;2023-02-21T09:38:53;100180.03;;;11.69;85.82
43119;BME280;28729;49.838;8.650;2023-02-21T09:42:57;100179.22;;;11.85;85.74
43119;BME280;28729;49.838;8.650;2023-02-21T09:47:04;100179.06;;;11.92;83.83
43119;BME280;28729;49.838;8.650;2023-02-21T09:51:10;100168.84;;;12.09;84.11
43119;BME280;28729;49.838;8.650;2023-02-21T09:55:33;100171.84;;;12.25;82.08
43119;BME280;28729;49.838;8.650;2023-02-21T09:59:36;100175.13;;;12.39;81.42
43119;BME280;28729;49.838;8.650;2023-02-21T10:03:47;100174.69;;;12.47;78.32
43119;BME280;28729;49.838;8.650;2023-02-21T10:08:29;100171.22;;;12.73;78.90
43119;BME280;28729;49.838;8.650;2023-02-21T10:12:52;100165.38;;;12.92;76.12
43119;BME280;28729;49.838;8.650;2023-02-21T10:17:02;100171.94;;;13.08;76.44
43119;BME280;28729;49.838;8.650;2023-02-21T10:21:21;100169.31;;;13.18;75.93
43119;BME280;28729;49.838;8.650;2023-02-21T10:25:30;100166.25;;;13.19;74.37
43119;BME280;28729;49.838;8.650;2023-02-21T10:29:43;100162.16;;;13.22;74.87
43119;BME280;28729;49.838;8.650;2023-02-21T10:33:49;100168.94;;;13.31;74.18
43119;BME280;28729;49.838;8.650;2023-02-21T10:37:56;100169.47;;;13.11;73.57
43119;BME280;28729;49.838;8.650;2023-02-21T10:41:59;100162.59;;;13.14;73.78
43119;BME280;28729;49.838;8.650;2023-02-21T10:46:24;100162.88;;;13.12;74.38
43119;BME280;28729;49.838;8.650;2023-02-21T10:51:03;100156.84;;;13.20;73.36
43119;BME280;28729;49.838;8.650;2023-02-21T10:55:25;100158.81;;;13.42;73.72
43119;BME280;28729;49.838;8.650;2023-02-21T10:59:36;100146.91;;;13.68;72.80
43119;BME280;28729;49.838;8.650;2023-02-21T11:03:44;100143.91;;;13.75;72.46
43119;BME280;28729;49.838;8.650;2023-02-21T11:07:59;100139.28;;;13.86;70.96
43119;BME280;28729;49.838;8.650;2023-02-21T11:16:19;100135.38;;;14.14;69.68
43119;BME280;28729;49.838;8.650;2023-02-21T11:20:25;100131.88;;;14.29;69.62
43119;BME280;28729;49.838;8.650;2023-02-21T11:24:27;100130.50;;;14.31;68.11
43119;BME280;28729;49.838;8.650;2023-02-21T11:28:29;100120.97;;;14.54;68.80
43119;BME280;28729;49.838;8.650;2023-02-21T11:32:36;100111.09;;;14.74;65.88
43119;BME280;28729;49.838;8.650;2023-02-21T11:36:41;100108.13;;;14.96;67.05
43119;BME280;28729;49.838;8.650;2023-02-21T11:40:48;100102.94;;;15.15;65.50
43119;BME280;28729;49.838;8.650;2023-02-21T11:49:19;100091.34;;;15.54;64.73
43119;BME280;28729;49.838;8.650;2023-02-21T11:53:28;100070.56;;;15.82;62.55
43119;BME280;28729;49.838;8.650;2023-02-21T12:06:20;100050.53;;;16.96;59.23
43119;BME280;28729;49.838;8.650;2023-02-21T12:11:11;100040.75;;;17.43;57.90
43119;BME280;28729;49.838;8.650;2023-02-21T12:15:25;100028.44;;;18.17;55.78
43119;BME280;28729;49.838;8.650;2023-02-21T12:19:45;100028.72;;;18.88;53.43
43119;BME280;28729;49.838;8.650;2023-02-21T12:24:21;100013.63;;;19.27;52.07
43119;BME280;28729;49.838;8.650;2023-02-21T12:28:34;100009.78;;;19.42;50.27
43119;BME280;28729;49.838;8.650;2023-02-21T12:37:16;99988.66;;;20.01;47.62
43119;BME280;28729;49.838;8.650;2023-02-21T12:41:36;99983.69;;;20.12;46.07
43119;BME280;28729;49.838;8.650;2023-02-21T12:50:14;99981.44;;;20.69;44.67
43119;BME280;28729;49.838;8.650;2023-02-21T12:54:25;99979.28;;;21.02;43.75
43119;BME280;28729;49.838;8.650;2023-02-21T12:58:37;99977.91;;;21.50;43.66
43119;BME280;28729;49.838;8.650;2023-02-21T13:12:00;99952.63;;;22.35;41.27
43119;BME280;28729;49.838;8.650;2023-02-21T13:16:06;99946.53;;;22.41;39.89
43119;BME280;28729;49.838;8.650;2023-02-21T13:20:19;99940.44;;;22.48;40.29
43119;BME280;28729;49.838;8.650;2023-02-21T13:24:47;99932.88;;;22.57;40.04
43119;BME280;28729;49.838;8.650;2023-02-21T13:28:54;99944.66;;;22.19;40.39
43119;BME280;28729;49.838;8.650;2023-02-21T13:32:58;99927.16;;;21.15;41.16
43119;BME280;28729;49.838;8.650;2023-02-21T13:37:05;99929.59;;;20.58;42.66
43119;BME280;28729;49.838;8.650;2023-02-21T13:41:09;99918.72;;;19.87;43.51
43119;BME280;28729;49.838;8.650;2023-02-21T13:45:14;99912.38;;;19.35;44.93
43119;BME280;28729;49.838;8.650;2023-02-21T13:54:07;99911.19;;;18.47;46.61
43119;BME280;28729;49.838;8.650;2023-02-21T14:02:20;99895.84;;;17.77;48.79
43119;BME280;28729;49.838;8.650;2023-02-21T14:06:32;99895.28;;;17.51;49.69
43119;BME280;28729;49.838;8.650;2023-02-21T14:10:51;99893.66;;;17.16;50.29
43119;BME280;28729;49.838;8.650;2023-02-21T14:15:04;99881.56;;;16.96;51.88
43119;BME280;28729;49.838;8.650;2023-02-21T14:19:10;99883.09;;;16.78;51.82
43119;BME280;28729;49.838;8.650;2023-02-21T14:23:21;99881.78;;;16.60;52.65
43119;BME280;28729;49.838;8.650;2023-02-21T14:31:52;99876.56;;;16.54;53.17
43119;BME280;28729;49.838;8.650;2023-02-21T14:36:03;99873.22;;;16.52;53.89
43119;BME280;28729;49.838;8.650;2023-02-21T14:48:49;99854.84;;;16.51;54.14
43119;BME280;28729;49.838;8.650;2023-02-21T14:57:38;99849.16;;;16.71;54.13
43119;BME280;28729;49.838;8.650;2023-02-21T15:02:02;99853.56;;;16.82;54.17
43119;BME280;28729;49.838;8.650;2023-02-21T15:06:17;99847.81;;;17.03;53.53
43119;BME280;28729;49.838;8.650;2023-02-21T15:10:30;99842.50;;;17.06;53.77
43119;BME280;28729;49.838;8.650;2023-02-21T15:14:38;99837.13;;;17.15;53.68
43119;BME280;28729;49.838;8.650;2023-02-21T15:18:56;99832.91;;;17.23;52.96
43119;BME280;28729;49.838;8.650;2023-02-21T15:23:22;99835.91;;;17.26;52.92
43119;BME280;28729;49.838;8.650;2023-02-21T15:27:30;99835.31;;;17.29;53.19
43119;BME280;28729;49.838;8.650;2023-02-21T15:31:39;99829.81;;;17.24;53.22
43119;BME280;28729;49.838;8.650;2023-02-21T15:35:50;99821.53;;;17.19;52.94
43119;BME280;28729;49.838;8.650;2023-02-21T15:39:58;99821.91;;;17.07;53.76
43119;BME280;28729;49.838;8.650;2023-02-21T15:44:10;99822.88;;;16.93;53.35
43119;BME280;28729;49.838;8.650;2023-02-21T15:48:13;99821.78;;;16.89;53.59
43119;BME280;28729;49.838;8.650;2023-02-21T15:52:37;99819.09;;;16.73;53.84
43119;BME280;28729;49.838;8.650;2023-02-21T15:56:39;99823.75;;;16.49;54.51
43119;BME280;28729;49.838;8.650;2023-02-21T16:00:43;99814.94;;;16.31;54.82
43119;BME280;28729;49.838;8.650;2023-02-21T16:04:51;99819.50;;;16.12;55.71
43119;BME280;28729;49.838;8.650;2023-02-21T16:09:02;99811.28;;;15.91;56.04
43119;BME280;28729;49.838;8.650;2023-02-21T16:13:06;99807.47;;;15.77;56.61
43119;BME280;28729;49.838;8.650;2023-02-21T16:21:26;99804.22;;;15.44;57.79
43119;BME280;28729;49.838;8.650;2023-02-21T16:25:32;99792.59;;;15.22;58.10
43119;BME280;28729;49.838;8.650;2023-02-21T16:29:34;99793.75;;;15.00;58.90
43119;BME280;28729;49.838;8.650;2023-02-21T16:33:44;99801.25;;;14.74;60.10
43119;BME280;28729;49.838;8.650;2023-02-21T16:37:49;99791.22;;;14.48;61.20
43119;BME280;28729;49.838;8.650;2023-02-21T16:41:51;99796.44;;;14.19;62.35
43119;BME280;28729;49.838;8.650;2023-02-21T16:45:57;99789.50;;;13.96;63.49
43119;BME280;28729;49.838;8.650;2023-02-21T16:49:59;99792.16;;;13.70;64.28
43119;BME280;28729;49.838;8.650;2023-02-21T16:54:01;99792.34;;;13.48;65.48
43119;BME280;28729;49.838;8.650;2023-02-21T16:58:10;99792.75;;;13.25;66.60
43119;BME280;28729;49.838;8.650;2023-02-21T17:02:23;99795.94;;;13.01;67.16
43119;BME280;28729;49.838;8.650;2023-02-21T17:06:26;99792.19;;;12.80;67.87
43119;BME280;28729;49.838;8.650;2023-02-21T17:10:28;99805.00;;;12.59;69.36
43119;BME280;28729;49.838;8.650;2023-02-21T17:14:31;99800.94;;;12.40;70.39
43119;BME280;28729;49.838;8.650;2023-02-21T17:18:33;99804.09;;;12.21;71.05
43119;BME280;28729;49.838;8.650;2023-02-21T17:22:35;99807.28;;;12.08;71.65
43119;BME280;28729;49.838;8.650;2023-02-21T17:26:38;99807.09;;;11.93;72.59
43119;BME280;28729;49.838;8.650;2023-02-21T17:30:39;99816.34;;;11.81;73.09
43119;BME280;28729;49.838;8.650;2023-02-21T17:34:42;99819.53;;;11.73;73.71
43119;BME280;28729;49.838;8.650;2023-02-21T17:38:44;99809.53;;;11.67;74.22
43119;BME280;28729;49.838;8.650;2023-02-21T17:42:46;99812.50;;;11.60;74.56
43119;BME280;28729;49.838;8.650;2023-02-21T17:46:49;99808.84;;;11.55;75.14
43119;BME280;28729;49.838;8.650;2023-02-21T17:50:51;99814.28;;;11.50;75.40
43119;BME280;28729;49.838;8.650;2023-02-21T17:54:53;99812.31;;;11.45;75.67
43119;BME280;28729;49.838;8.650;2023-02-21T17:58:55;99812.78;;;11.42;76.26
43119;BME280;28729;49.838;8.650;2023-02-21T18:02:59;99818.81;;;11.39;76.58
43119;BME280;28729;49.838;8.650;2023-02-21T18:07:04;99812.66;;;11.32;77.13
43119;BME280;28729;49.838;8.650;2023-02-21T18:11:10;99821.34;;;11.24;77.72
43119;BME280;28729;49.838;8.650;2023-02-21T18:15:13;99814.38;;;11.16;78.23
43119;BME280;28729;49.838;8.650;2023-02-21T18:19:15;99818.16;;;11.10;78.63
43119;BME280;28729;49.838;8.650;2023-02-21T18:23:17;99810.38;;;11.07;78.88
43119;BME280;28729;49.838;8.650;2023-02-21T18:27:19;99813.06;;;11.02;78.98
43119;BME280;28729;49.838;8.650;2023-02-21T18:31:20;99814.66;;;10.98;79.65
43119;BME280;28729;49.838;8.650;2023-02-21T18:35:22;99813.75;;;10.92;80.11
43119;BME280;28729;49.838;8.650;2023-02-21T18:39:24;99808.38;;;10.85;80.38
43119;BME280;28729;49.838;8.650;2023-02-21T18:43:27;99807.72;;;10.78;80.79
43119;BME280;28729;49.838;8.650;2023-02-21T18:47:29;99805.47;;;10.75;81.24
43119;BME280;28729;49.838;8.650;2023-02-21T18:51:36;99799.38;;;10.73;81.58
43119;BME280;28729;49.838;8.650;2023-02-21T18:55:38;99797.28;;;10.63;82.02
43119;BME280;28729;49.838;8.650;2023-02-21T18:59:40;99797.69;;;10.55;82.44
43119;BME280;28729;49.838;8.650;2023-02-21T19:03:43;99797.28;;;10.46;82.72
43119;BME280;28729;49.838;8.650;2023-02-21T19:07:44;99791.19;;;10.44;83.11
43119;BME280;28729;49.838;8.650;2023-02-21T19:11:47;99796.72;;;10.44;83.48
43119;BME280;28729;49.838;8.650;2023-02-21T19:15:48;99784.25;;;10.42;83.73
43119;BME280;28729;49.838;8.650;2023-02-21T19:19:50;99795.53;;;10.40;84.22
43119;BME280;28729;49.838;8.650;2023-02-21T19:23:52;99798.78;;;10.37;84.54
43119;BME280;28729;49.838;8.650;2023-02-21T19:27:54;99791.59;;;10.36;84.87
43119;BME280;28729;49.838;8.650;2023-02-21T19:32:00;99797.34;;;10.35;85.04
43119;BME280;28729;49.838;8.650;2023-02-21T19:36:03;99789.25;;;10.28;85.33
43119;BME280;28729;49.838;8.650;2023-02-21T19:40:06;99796.81;;;10.21;85.80
43119;BME280;28729;49.838;8.650;2023-02-21T19:44:08;99799.22;;;10.17;85.76
43119;BME280;28729;49.838;8.650;2023-02-21T19:48:10;99803.31;;;10.15;86.13
43119;BME280;28729;49.838;8.650;2023-02-21T19:52:11;99793.13;;;10.15;86.19
43119;BME280;28729;49.838;8.650;2023-02-21T19:56:13;99801.13;;;10.17;86.42
43119;BME280;28729;49.838;8.650;2023-02-21T20:00:16;99798.97;;;10.19;86.51
43119;BME280;28729;49.838;8.650;2023-02-21T20:04:18;99801.50;;;10.20;86.50
43119;BME280;28729;49.838;8.650;2023-02-21T20:08:19;99796.00;;;10.20;86.72
43119;BME280;28729;49.838;8.650;2023-02-21T20:12:21;99786.28;;;10.18;87.25
43119;BME280;28729;49.838;8.650;2023-02-21T20:16:23;99786.78;;;10.15;87.25
43119;BME280;28729;49.838;8.650;2023-02-21T20:20:26;99789.44;;;10.10;87.91
43119;BME280;28729;49.838;8.650;2023-02-21T20:24:28;99793.69;;;10.00;88.38
43119;BME280;28729;49.838;8.650;2023-02-21T20:28:30;99791.59;;;9.91;88.98
43119;BME280;28729;49.838;8.650;2023-02-21T20:32:31;99791.22;;;9.87;89.40
43119;BME280;28729;49.838;8.650;2023-02-21T20:36:36;99792.19;;;9.81;89.40
43119;BME280;28729;49.838;8.650;2023-02-21T20:40:38;99795.22;;;9.79;89.43
43119;BME280;28729;49.838;8.650;2023-02-21T20:44:41;99786.63;;;9.76;89.82
43119;BME280;28729;49.838;8.650;2023-02-21T20:48:44;99785.69;;;9.70;90.16
43119;BME280;28729;49.838;8.650;2023-02-21T20:52:46;99788.91;;;9.67;90.15
43119;BME280;28729;49.838;8.650;2023-02-21T20:56:51;99783.63;;;9.66;90.66
43119;BME280;28729;49.838;8.650;2023-02-21T21:00:54;99777.31;;;9.65;90.47
43119;BME280;28729;49.838;8.650;2023-02-21T21:04:55;99772.91;;;9.64;90.62
43119;BME280;28729;49.838;8.650;2023-02-21T21:08:57;99782.81;;;9.65;90.28
43119;BME280;28729;49.838;8.650;2023-02-21T21:12:58;99772.03;;;9.64;90.47
43119;BME280;28729;49.838;8.650;2023-02-21T21:17:02;99775.28;;;9.61;90.74
43119;BME280;28729;49.838;8.650;2023-02-21T21:21:05;99785.09;;;9.56;90.96
43119;BME280;28729;49.838;8.650;2023-02-21T21:25:06;99779.00;;;9.54;91.35
43119;BME280;28729;49.838;8.650;2023-02-21T21:29:09;99771.84;;;9.53;91.66
43119;BME280;28729;49.838;8.650;2023-02-21T21:33:11;99780.09;;;9.53;91.96
43119;BME280;28729;49.838;8.650;2023-02-21T21:37:14;99775.69;;;9.52;92.20
43119;BME280;28729;49.838;8.650;2023-02-21T21:41:17;99779.50;;;9.51;92.21
43119;BME280;28729;49.838;8.650;2023-02-21T21:45:22;99773.41;;;9.49;92.32
43119;BME280;28729;49.838;8.650;2023-02-21T21:49:27;99769.84;;;9.49;92.52
43119;BME280;28729;49.838;8.650;2023-02-21T21:53:30;99768.97;;;9.48;92.32
43119;BME280;28729;49.838;8.650;2023-02-21T21:57:32;99771.72;;;9.48;92.41
43119;BME280;28729;49.838;8.650;2023-02-21T22:01:35;99778.22;;;9.42;92.75
43119;BME280;28729;49.838;8.650;2023-02-21T22:05:37;99769.63;;;9.39;93.09
43119;BME280;28729;49.838;8.650;2023-02-21T22:09:38;99769.28;;;9.35;93.16
43119;BME280;28729;49.838;8.650;2023-02-21T22:13:40;99767.50;;;9.29;93.38
43119;BME280;28729;49.838;8.650;2023-02-21T22:17:42;99771.78;;;9.25;93.80
43119;BME280;28729;49.838;8.650;2023-02-21T22:21:44;99758.78;;;9.20;94.10
43119;BME280;28729;49.838;8.650;2023-02-21T22:25:46;99756.53;;;9.17;93.90
43119;BME280;28729;49.838;8.650;2023-02-21T22:29:48;99751.25;;;9.16;94.19
43119;BME280;28729;49.838;8.650;2023-02-21T22:33:50;99752.34;;;9.15;94.04
43119;BME280;28729;49.838;8.650;2023-02-21T22:37:54;99759.16;;;9.12;94.11
43119;BME280;28729;49.838;8.650;2023-02-21T22:41:56;99749.94;;;9.06;94.33
43119;BME280;28729;49.838;8.650;2023-02-21T22:45:57;99747.19;;;9.06;94.58
43119;BME280;28729;49.838;8.650;2023-02-21T22:49:59;99739.22;;;9.05;94.61
43119;BME280;28729;49.838;8.650;2023-02-21T22:54:01;99741.13;;;9.04;94.82
43119;BME280;28729;49.838;8.650;2023-02-21T22:58:07;99738.25;;;8.99;95.01
43119;BME280;28729;49.838;8.650;2023-02-21T23:02:09;99736.72;;;8.80;96.26
43119;BME280;28729;49.838;8.650;2023-02-21T23:06:12;99733.97;;;8.56;97.13
43119;BME280;28729;49.838;8.650;2023-02-21T23:10:17;99738.84;;;8.31;98.05
43119;BME280;28729;49.838;8.650;2023-02-21T23:14:19;99732.22;;;8.08;99.24
43119;BME280;28729;49.838;8.650;2023-02-21T23:18:23;99720.84;;;7.93;99.88